Time;durP1;ratioP1;P1;durP2;ratioP2;P2;SDS_P1;SDS_P2;PMS_P1;PMS_P2;Temp;Humidity;BMP_temperature;BMP_pressure;BME280_temperature;BME280_humidity;BME280_pressure;Samples;Min_cycle;Max_cycle;Signal;HPM_P1;HPM_P2
2021/12/31 00:00:12;;;;;;;45.55;20.83;;;20.40;54.50;;;;;;5096183;28;20059;-69
2021/12/31 00:02:38;;;;;;;45.25;20.00;;;20.40;54.50;;;;;;5076569;28;20058;-70
2021/12/31 00:05:06;;;;;;;43.38;19.25;;;20.50;54.50;;;;;;5077942;28;20041;-69
2021/12/31 00:07:32;;;;;;;48.60;21.98;;;20.50;54.40;;;;;;5096349;28;20067;-70
2021/12/31 00:10:00;;;;;;;48.30;20.88;;;20.40;54.10;;;;;;5095975;28;20032;-70
2021/12/31 00:12:27;;;;;;;51.20;20.67;;;20.40;54.20;;;;;;5086447;28;20044;-70
2021/12/31 00:14:53;;;;;;;49.08;20.90;;;20.40;54.20;;;;;;5080896;28;20056;-70
2021/12/31 00:17:20;;;;;;;52.35;20.75;;;20.40;54.20;;;;;;5096365;28;20058;-70
2021/12/31 00:19:47;;;;;;;50.10;20.75;;;20.30;54.20;;;;;;5096378;28;20478;-70
2021/12/31 00:25:00;;;;;;;49.25;19.15;;;20.20;54.10;;;;;;5082159;28;20048;-69
2021/12/31 00:27:26;;;;;;;45.47;20.00;;;20.20;54.20;;;;;;5094534;28;20037;-70
2021/12/31 00:29:52;;;;;;;48.17;20.33;;;20.20;54.10;;;;;;5095539;28;20048;-69
2021/12/31 00:32:18;;;;;;;50.17;20.35;;;20.20;54.20;;;;;;5096090;28;20067;-70
2021/12/31 00:34:45;;;;;;;43.78;19.05;;;20.10;54.30;;;;;;5095939;28;20048;-70
2021/12/31 00:37:11;;;;;;;51.88;21.83;;;20.20;54.50;;;;;;5079989;28;20037;-70
2021/12/31 00:39:37;;;;;;;48.88;20.33;;;20.00;54.30;;;;;;5076166;28;20104;-70
2021/12/31 00:42:04;;;;;;;47.13;18.73;;;20.20;54.10;;;;;;5075463;28;20051;-69
2021/12/31 00:44:30;;;;;;;50.63;20.60;;;20.30;54.10;;;;;;5074249;28;20045;-70
2021/12/31 00:46:56;;;;;;;50.20;19.05;;;20.30;53.80;;;;;;5076546;28;20033;-70
2021/12/31 00:49:22;;;;;;;48.55;19.48;;;20.30;53.70;;;;;;5074513;28;20043;-70
2021/12/31 00:51:48;;;;;;;41.33;17.90;;;20.40;53.60;;;;;;5074915;28;20041;-70
2021/12/31 00:54:15;;;;;;;47.10;19.75;;;20.30;53.60;;;;;;5074505;28;20045;-70
2021/12/31 00:56:41;;;;;;;45.58;20.25;;;20.30;53.50;;;;;;5082565;28;20055;-70
2021/12/31 00:59:07;;;;;;;44.88;19.30;;;20.40;53.40;;;;;;5080558;28;20045;-70
2021/12/31 01:01:35;;;;;;;46.47;19.77;;;20.30;53.40;;;;;;5085653;28;20040;-69
2021/12/31 01:04:02;;;;;;;38.53;17.38;;;20.20;53.30;;;;;;5095705;28;20044;-70
2021/12/31 01:06:28;;;;;;;44.67;18.95;;;20.30;53.40;;;;;;5085954;28;20028;-70
2021/12/31 01:08:53;;;;;;;44.60;18.83;;;20.30;53.50;;;;;;5096971;28;20104;-69
2021/12/31 01:11:19;;;;;;;45.90;19.27;;;20.20;53.60;;;;;;5091774;28;20029;-69
2021/12/31 01:16:17;;;;;;;42.92;18.58;;;20.10;53.90;;;;;;5079519;28;20139;-69
2021/12/31 01:21:20;;;;;;;42.25;18.35;;;20.10;54.10;;;;;;5079520;28;20041;-70
2021/12/31 01:23:50;;;;;;;41.67;18.40;;;20.10;54.20;;;;;;5079379;28;20079;-70
2021/12/31 01:26:18;;;;;;;44.50;19.00;;;20.00;54.40;;;;;;5086888;28;20119;-70
2021/12/31 01:28:45;;;;;;;42.67;18.58;;;20.00;54.20;;;;;;5079554;28;20041;-70
2021/12/31 01:31:11;;;;;;;43.13;19.02;;;20.20;54.00;;;;;;5079583;28;20040;-70
2021/12/31 01:33:37;;;;;;;47.92;19.02;;;20.10;54.00;;;;;;5079201;28;20076;-70
2021/12/31 01:36:05;;;;;;;48.00;18.23;;;20.00;53.70;;;;;;5088869;28;20049;-70
2021/12/31 01:38:31;;;;;;;47.10;19.10;;;20.20;53.70;;;;;;5099070;28;20040;-70
2021/12/31 01:40:57;;;;;;;41.85;19.30;;;20.10;53.60;;;;;;5096113;28;20052;-70
2021/12/31 01:43:24;;;;;;;42.80;19.75;;;20.20;53.50;;;;;;5098307;28;20064;-70
2021/12/31 01:45:56;;;;;;;47.13;19.27;;;20.20;53.40;;;;;;5098296;28;20044;-70
2021/12/31 01:48:47;;;;;;;45.13;19.35;;;20.20;53.50;;;;;;5099098;28;20067;-69
2021/12/31 01:51:13;;;;;;;41.58;18.80;;;20.20;53.40;;;;;;5090313;28;20052;-69
2021/12/31 01:53:41;;;;;;;45.45;18.70;;;20.20;53.40;;;;;;5078542;28;20071;-69
2021/12/31 01:56:08;;;;;;;46.47;20.75;;;20.10;53.40;;;;;;5079004;28;20052;-70
2021/12/31 01:58:34;;;;;;;51.97;20.67;;;20.20;53.50;;;;;;5078649;28;20063;-69
2021/12/31 02:01:04;;;;;;;46.55;19.60;;;20.00;53.70;;;;;;5082075;28;20044;-70
2021/12/31 02:03:32;;;;;;;45.55;18.77;;;20.10;54.00;;;;;;5098817;28;20124;-70
2021/12/31 02:05:58;;;;;;;53.92;20.50;;;20.00;54.00;;;;;;5093244;28;20047;-70
2021/12/31 02:08:24;;;;;;;50.67;19.48;;;20.00;54.10;;;;;;5078947;28;20127;-69
2021/12/31 02:10:51;;;;;;;46.67;19.33;;;19.90;54.20;;;;;;5096400;28;20047;-70
2021/12/31 02:13:20;;;;;;;49.83;19.15;;;20.00;54.40;;;;;;5097150;28;20044;-70
2021/12/31 02:15:46;;;;;;;49.53;19.13;;;19.90;54.60;;;;;;5097413;28;20040;-69
2021/12/31 02:18:12;;;;;;;47.22;20.48;;;19.80;54.70;;;;;;5098597;28;20101;-70
2021/12/31 02:20:48;;;;;;;41.45;19.17;;;19.80;55.10;;;;;;5088844;28;20037;-69
2021/12/31 02:23:16;;;;;;;45.17;20.63;;;19.90;54.80;;;;;;5078320;28;20105;-70
2021/12/31 02:25:42;;;;;;;55.65;22.63;;;20.00;54.50;;;;;;5079034;28;20040;-69
2021/12/31 02:28:08;;;;;;;51.17;20.55;;;19.80;54.30;;;;;;5078051;28;20096;-69
2021/12/31 02:30:34;;;;;;;48.85;18.85;;;20.00;54.30;;;;;;5077402;28;20041;-69
2021/12/31 02:33:03;;;;;;;51.05;19.83;;;20.00;54.20;;;;;;5078104;28;20051;-70
2021/12/31 02:35:29;;;;;;;47.17;19.95;;;20.00;54.00;;;;;;5077161;28;20433;-70
2021/12/31 02:37:55;;;;;;;53.13;19.67;;;20.00;53.90;;;;;;5089110;28;20056;-69
2021/12/31 02:40:23;;;;;;;50.83;20.95;;;20.00;53.80;;;;;;5081753;28;20041;-71
2021/12/31 02:42:50;;;;;;;47.45;19.23;;;20.00;53.80;;;;;;5078959;28;20083;-70
2021/12/31 02:45:16;;;;;;;43.20;19.00;;;20.10;53.80;;;;;;5080183;28;20038;-70
2021/12/31 02:47:45;;;;;;;49.10;19.65;;;20.00;53.60;;;;;;5098150;28;20036;-70
2021/12/31 02:50:14;;;;;;;49.25;20.58;;;20.00;53.70;;;;;;5097578;28;20032;-70
2021/12/31 02:52:41;;;;;;;45.88;20.55;;;20.00;53.70;;;;;;5084346;28;20044;-70
2021/12/31 02:55:10;;;;;;;46.95;18.45;;;20.00;53.90;;;;;;5077764;28;20100;-70
2021/12/31 02:57:40;;;;;;;50.58;20.10;;;19.90;54.20;;;;;;5077698;28;20036;-69
2021/12/31 03:00:08;;;;;;;43.45;17.85;;;19.90;54.40;;;;;;5077520;28;20092;-70
2021/12/31 03:02:37;;;;;;;47.38;19.85;;;19.90;54.70;;;;;;5097131;28;20063;-69
2021/12/31 03:05:06;;;;;;;42.78;18.48;;;19.90;54.90;;;;;;5095768;28;20052;-70
2021/12/31 03:07:33;;;;;;;43.58;18.75;;;19.80;55.10;;;;;;5097446;28;20033;-70
2021/12/31 03:10:01;;;;;;;42.80;18.55;;;19.70;55.30;;;;;;5093988;28;20066;-69
2021/12/31 03:12:27;;;;;;;43.63;17.30;;;19.80;55.40;;;;;;5076695;28;20029;-70
2021/12/31 03:14:55;;;;;;;43.58;16.77;;;19.70;55.60;;;;;;5085072;28;20036;-70
2021/12/31 03:17:24;;;;;;;47.42;18.15;;;19.70;55.80;;;;;;5096498;28;20104;-69
2021/12/31 03:19:57;;;;;;;44.65;17.17;;;19.70;55.40;;;;;;5096758;28;20043;-70
2021/12/31 03:22:26;;;;;;;38.60;17.80;;;19.70;55.20;;;;;;5096689;28;20109;-70
2021/12/31 03:24:53;;;;;;;41.53;19.63;;;19.70;55.10;;;;;;5095021;28;20066;-70
2021/12/31 03:27:19;;;;;;;39.33;19.23;;;19.90;54.90;;;;;;5096811;28;20044;-70
2021/12/31 03:29:45;;;;;;;41.80;18.52;;;19.80;54.70;;;;;;5097146;28;20040;-70
2021/12/31 03:32:11;;;;;;;45.72;19.88;;;19.80;54.80;;;;;;5079795;28;20509;-70
2021/12/31 03:34:37;;;;;;;39.30;18.00;;;19.80;55.00;;;;;;5076380;28;20048;-69
2021/12/31 03:37:03;;;;;;;47.05;17.17;;;19.80;55.20;;;;;;5083962;28;20044;-70
2021/12/31 03:39:29;;;;;;;50.90;18.23;;;19.80;55.50;;;;;;5092848;28;20052;-70
2021/12/31 03:41:55;;;;;;;40.75;16.20;;;19.80;55.00;;;;;;5076898;28;20068;-69
2021/12/31 03:44:22;;;;;;;43.67;18.45;;;19.80;54.90;;;;;;5076800;28;20052;-70
2021/12/31 03:46:48;;;;;;;38.20;17.67;;;19.80;54.80;;;;;;5076643;28;20033;-70
2021/12/31 03:49:14;;;;;;;39.20;18.27;;;19.80;54.70;;;;;;5077344;28;20101;-69
2021/12/31 03:51:40;;;;;;;37.13;17.55;;;19.90;54.80;;;;;;5096105;28;20047;-71
2021/12/31 03:54:07;;;;;;;42.75;17.92;;;20.00;54.70;;;;;;5096634;28;20041;-70
2021/12/31 03:56:33;;;;;;;39.88;17.70;;;19.90;54.50;;;;;;5096245;28;20060;-69
2021/12/31 03:59:00;;;;;;;46.45;16.60;;;19.90;54.50;;;;;;5096582;28;20066;-69
2021/12/31 04:01:27;;;;;;;35.00;16.95;;;19.90;54.70;;;;;;5084415;28;20033;-70
2021/12/31 04:03:55;;;;;;;44.70;18.98;;;19.80;54.90;;;;;;5076088;28;20075;-69
2021/12/31 04:06:21;;;;;;;38.13;16.67;;;19.70;55.10;;;;;;5076721;28;20140;-69
2021/12/31 04:08:48;;;;;;;42.80;17.30;;;19.80;55.40;;;;;;5086276;28;20058;-70
2021/12/31 04:11:14;;;;;;;43.45;16.85;;;19.70;55.70;;;;;;5095203;28;20112;-70
2021/12/31 04:13:40;;;;;;;38.20;16.33;;;19.70;55.80;;;;;;5096328;28;20142;-69
2021/12/31 04:16:06;;;;;;;40.75;17.67;;;19.80;55.90;;;;;;5088661;28;20044;-70
2021/12/31 04:18:32;;;;;;;41.08;17.05;;;19.60;55.80;;;;;;5076307;28;20048;-69
2021/12/31 04:21:00;;;;;;;41.22;18.27;;;19.70;56.10;;;;;;5076081;28;20108;-70
2021/12/31 04:23:30;;;;;;;39.03;15.50;;;19.70;56.30;;;;;;5076191;28;20045;-70
2021/12/31 04:25:57;;;;;;;33.05;15.02;;;19.50;56.30;;;;;;5084136;28;20040;-69
2021/12/31 04:28:25;;;;;;;39.00;15.30;;;19.50;56.40;;;;;;5076087;28;20045;-69
2021/12/31 04:30:51;;;;;;;34.60;15.70;;;19.70;56.10;;;;;;5082004;28;20048;-70
2021/12/31 04:33:17;;;;;;;30.95;15.45;;;19.70;55.80;;;;;;5096175;28;20084;-69
2021/12/31 04:35:44;;;;;;;33.15;15.10;;;19.70;55.80;;;;;;5095760;28;20073;-70
2021/12/31 04:38:10;;;;;;;39.08;16.00;;;19.80;55.60;;;;;;5096633;28;20053;-69
2021/12/31 04:40:36;;;;;;;33.33;15.20;;;19.70;55.50;;;;;;5097871;28;20032;-70
2021/12/31 04:43:03;;;;;;;32.00;14.63;;;19.70;55.70;;;;;;5099332;28;20055;-69
2021/12/31 04:45:29;;;;;;;34.92;13.95;;;19.70;55.80;;;;;;5099418;28;20064;-70
2021/12/31 04:47:55;;;;;;;33.78;14.18;;;19.70;55.90;;;;;;5099946;28;20041;-69
2021/12/31 04:50:21;;;;;;;37.22;15.02;;;19.80;56.00;;;;;;5098687;28;20032;-70
2021/12/31 04:52:47;;;;;;;40.45;15.10;;;19.80;55.60;;;;;;5100214;28;20049;-69
2021/12/31 04:55:14;;;;;;;32.85;15.13;;;19.90;55.50;;;;;;5097040;28;20083;-69
2021/12/31 04:57:42;;;;;;;33.25;14.18;;;19.80;55.30;;;;;;5100111;28;20045;-70
2021/12/31 05:00:08;;;;;;;32.85;14.50;;;19.90;55.30;;;;;;5099405;28;20044;-70
2021/12/31 05:02:36;;;;;;;39.38;15.18;;;19.80;55.10;;;;;;5099058;28;20051;-70
2021/12/31 05:05:03;;;;;;;36.58;15.27;;;19.80;55.10;;;;;;5088005;28;20048;-70
2021/12/31 05:07:29;;;;;;;33.33;14.40;;;19.80;55.00;;;;;;5099338;28;20103;-70
2021/12/31 05:09:55;;;;;;;36.90;16.02;;;19.80;55.10;;;;;;5098825;28;20482;-70
2021/12/31 05:12:26;;;;;;;39.95;16.00;;;19.70;55.30;;;;;;5080672;28;20047;-69
2021/12/31 05:14:53;;;;;;;35.78;15.80;;;19.80;55.40;;;;;;5081413;28;20068;-70
2021/12/31 05:17:19;;;;;;;37.17;16.02;;;19.70;55.70;;;;;;5080613;28;20040;-70
2021/12/31 05:19:46;;;;;;;31.30;15.68;;;19.60;55.90;;;;;;5078926;28;20067;-70
2021/12/31 05:22:12;;;;;;;34.40;15.48;;;19.70;56.20;;;;;;5080041;28;20048;-69
2021/12/31 05:24:40;;;;;;;27.60;13.00;;;19.60;56.20;;;;;;5085993;28;20047;-70
2021/12/31 05:27:07;;;;;;;33.15;14.80;;;19.60;56.40;;;;;;5098991;28;20070;-70
2021/12/31 05:29:35;;;;;;;33.53;14.15;;;19.70;56.50;;;;;;5098793;28;20040;-70
2021/12/31 05:32:01;;;;;;;32.88;14.45;;;19.50;56.70;;;;;;5098036;28;20040;-70
2021/12/31 05:34:27;;;;;;;31.98;14.80;;;19.50;56.50;;;;;;5098685;28;20055;-70
2021/12/31 05:36:53;;;;;;;30.48;14.35;;;19.60;56.80;;;;;;5098096;28;20055;-69
2021/12/31 05:39:19;;;;;;;29.77;13.77;;;19.60;56.70;;;;;;5092046;28;20079;-69
2021/12/31 05:41:46;;;;;;;29.90;12.80;;;19.60;56.70;;;;;;5078498;28;20041;-70
2021/12/31 05:44:12;;;;;;;35.38;14.25;;;19.70;56.40;;;;;;5080255;28;20071;-70
2021/12/31 05:46:39;;;;;;;31.38;14.60;;;19.70;56.20;;;;;;5097737;28;20048;-70
2021/12/31 05:49:05;;;;;;;31.58;13.45;;;19.60;55.90;;;;;;5079974;28;20060;-70
2021/12/31 05:51:32;;;;;;;30.60;13.63;;;19.70;56.00;;;;;;5090111;28;20044;-70
2021/12/31 05:53:58;;;;;;;28.85;14.32;;;19.60;56.10;;;;;;5095765;28;20062;-70
2021/12/31 05:56:24;;;;;;;28.48;13.63;;;19.60;56.40;;;;;;5098343;28;20036;-70
2021/12/31 05:58:50;;;;;;;31.20;13.10;;;19.60;56.70;;;;;;5092217;28;20045;-70
2021/12/31 06:01:16;;;;;;;26.98;13.00;;;19.60;56.60;;;;;;5079160;28;20033;-70
2021/12/31 06:03:43;;;;;;;26.30;13.05;;;19.60;56.40;;;;;;5097084;28;20036;-70
2021/12/31 06:06:09;;;;;;;27.85;13.15;;;19.70;56.20;;;;;;5097999;28;20063;-70
2021/12/31 06:08:35;;;;;;;32.90;13.38;;;19.70;56.00;;;;;;5096145;28;20041;-69
2021/12/31 06:11:02;;;;;;;34.72;14.18;;;19.70;55.90;;;;;;5097713;28;20036;-69
2021/12/31 06:13:28;;;;;;;31.92;14.10;;;19.70;55.80;;;;;;5084226;28;20048;-70
2021/12/31 06:15:57;;;;;;;28.20;13.73;;;19.70;55.80;;;;;;5077917;28;20104;-69
2021/12/31 06:18:26;;;;;;;25.65;13.38;;;19.80;55.70;;;;;;5077847;28;20109;-70
2021/12/31 06:20:52;;;;;;;30.70;12.73;;;19.80;55.80;;;;;;5077518;28;20088;-70
2021/12/31 06:23:19;;;;;;;28.20;13.65;;;19.80;56.00;;;;;;5078718;28;20045;-70
2021/12/31 06:25:45;;;;;;;32.08;13.52;;;19.80;56.30;;;;;;5079607;28;20036;-70
2021/12/31 06:28:11;;;;;;;30.45;13.50;;;19.70;56.40;;;;;;5077583;28;20041;-69
2021/12/31 06:30:37;;;;;;;26.27;12.27;;;19.80;56.60;;;;;;5089122;28;20055;-70
2021/12/31 06:33:03;;;;;;;27.48;13.48;;;19.70;56.70;;;;;;5092005;28;20059;-69
2021/12/31 06:35:29;;;;;;;14.38;8.18;;;19.80;56.20;;;;;;5097260;28;20068;-69
2021/12/31 06:37:57;;;;;;;13.50;7.80;;;19.60;48.90;;;;;;5096241;28;20036;-69
2021/12/31 06:40:23;;;;;;;12.82;6.57;;;19.70;45.30;;;;;;5094626;28;20153;-69
2021/12/31 06:42:49;;;;;;;11.18;6.57;;;19.90;43.80;;;;;;5093895;28;20063;-69
2021/12/31 06:45:18;;;;;;;16.85;7.00;;;19.90;43.00;;;;;;5090056;28;20041;-69
2021/12/31 06:47:44;;;;;;;14.13;6.38;;;19.90;42.50;;;;;;5086474;28;20044;-70
2021/12/31 06:50:10;;;;;;;16.90;8.52;;;20.10;40.30;;;;;;5094651;28;20054;-71
2021/12/31 06:52:40;;;;;;;12.60;7.47;;;20.10;41.70;;;;;;5095557;28;20044;-69
2021/12/31 06:55:07;;;;;;;16.58;9.18;;;20.20;43.00;;;;;;5094322;28;20101;-69
2021/12/31 06:57:34;;;;;;;13.57;6.43;;;20.20;42.30;;;;;;5095096;28;20033;-70
2021/12/31 07:00:00;;;;;;;12.07;7.70;;;20.40;43.20;;;;;;5095687;28;20035;-71
2021/12/31 07:02:26;;;;;;;12.05;8.02;;;20.50;41.80;;;;;;5094884;28;20058;-70
2021/12/31 07:04:52;;;;;;;12.55;8.45;;;20.50;43.20;;;;;;5076944;28;20037;-68
2021/12/31 07:07:18;;;;;;;13.55;7.93;;;20.70;43.40;;;;;;5076888;28;20036;-70
2021/12/31 07:09:44;;;;;;;15.48;8.13;;;20.60;45.20;;;;;;5076722;28;20052;-72
2021/12/31 07:12:10;;;;;;;14.88;6.40;;;20.80;44.20;;;;;;5089116;28;20036;-71
2021/12/31 07:14:37;;;;;;;15.70;7.60;;;20.70;42.80;;;;;;5096338;28;20055;-68
2021/12/31 07:17:03;;;;;;;17.30;9.60;;;20.80;43.10;;;;;;5084036;28;20066;-70
2021/12/31 07:19:29;;;;;;;20.30;11.10;;;20.90;43.00;;;;;;5102413;28;20099;-71
2021/12/31 07:21:55;;;;;;;27.42;13.25;;;20.80;42.90;;;;;;5116008;28;20043;-70
2021/12/31 07:24:23;;;;;;;24.17;13.48;;;20.90;52.20;;;;;;5099904;28;20040;-70
2021/12/31 07:26:49;;;;;;;27.45;14.45;;;21.00;55.90;;;;;;5089003;28;20037;-70
2021/12/31 07:29:15;;;;;;;23.63;12.82;;;21.10;56.40;;;;;;5078226;28;20041;-71
2021/12/31 07:31:41;;;;;;;21.67;11.75;;;21.00;59.50;;;;;;5089204;28;20059;-71
2021/12/31 07:34:07;;;;;;;23.58;12.07;;;21.00;59.10;;;;;;5096005;28;20048;-70
2021/12/31 07:36:33;;;;;;;25.67;13.88;;;21.00;59.80;;;;;;5095927;28;20292;-72
2021/12/31 07:39:06;;;;;;;22.77;12.27;;;20.90;60.50;;;;;;5095960;28;20052;-70
2021/12/31 07:41:32;;;;;;;25.80;13.07;;;20.80;60.10;;;;;;5095697;28;20048;-71
2021/12/31 07:44:02;;;;;;;23.40;12.45;;;20.80;59.70;;;;;;5095096;28;20056;-71
2021/12/31 07:46:28;;;;;;;24.80;12.25;;;20.80;59.90;;;;;;5093471;28;20047;-71
2021/12/31 07:48:54;;;;;;;22.75;13.18;;;20.70;60.40;;;;;;5096009;28;20044;-71
2021/12/31 07:51:21;;;;;;;21.63;12.55;;;20.60;60.80;;;;;;5095936;28;20052;-71
2021/12/31 07:53:47;;;;;;;26.88;12.98;;;20.60;61.50;;;;;;5095811;28;20046;-71
2021/12/31 07:56:14;;;;;;;20.73;11.88;;;20.60;61.30;;;;;;5095671;28;20059;-70
2021/12/31 07:58:40;;;;;;;22.27;12.40;;;20.70;61.70;;;;;;5095752;28;20100;-71
2021/12/31 08:01:06;;;;;;;27.17;13.45;;;20.60;61.60;;;;;;5091442;28;20051;-71
2021/12/31 08:03:35;;;;;;;22.08;12.05;;;20.60;61.80;;;;;;5095422;28;20045;-72
2021/12/31 08:06:01;;;;;;;25.27;12.27;;;20.50;62.20;;;;;;5095706;28;20108;-72
2021/12/31 08:08:27;;;;;;;27.67;13.43;;;20.60;62.10;;;;;;5095628;28;20045;-71
2021/12/31 08:10:53;;;;;;;30.33;14.85;;;20.50;62.10;;;;;;5095828;28;20050;-71
2021/12/31 08:13:20;;;;;;;23.38;13.52;;;20.60;61.80;;;;;;5095260;28;20029;-72
2021/12/31 08:15:46;;;;;;;28.35;14.32;;;20.60;62.00;;;;;;5091530;28;20048;-71
2021/12/31 08:18:12;;;;;;;27.90;13.50;;;20.70;62.10;;;;;;5095580;28;20054;-73
2021/12/31 08:20:38;;;;;;;26.70;13.25;;;20.60;62.30;;;;;;5095502;28;20040;-71
2021/12/31 08:23:09;;;;;;;9.88;5.68;;;20.70;61.50;;;;;;5095118;28;20044;-70
2021/12/31 08:25:36;;;;;;;12.40;5.38;;;20.90;51.70;;;;;;5095493;28;20108;-70
2021/12/31 08:28:03;;;;;;;9.60;6.18;;;21.00;47.20;;;;;;5095451;28;20048;-72
2021/12/31 08:30:29;;;;;;;12.00;6.32;;;21.10;46.00;;;;;;5091134;28;20036;-71
2021/12/31 08:32:55;;;;;;;18.17;5.95;;;21.00;46.00;;;;;;5095091;28;20048;-71
2021/12/31 08:35:22;;;;;;;11.23;5.95;;;21.20;46.50;;;;;;5095087;28;20048;-70
2021/12/31 08:37:47;;;;;;;22.45;12.77;;;21.20;46.20;;;;;;5094578;28;20051;-72
2021/12/31 08:40:13;;;;;;;23.55;13.75;;;21.30;53.60;;;;;;5078493;28;20070;-71
2021/12/31 08:42:40;;;;;;;25.63;14.02;;;21.40;56.40;;;;;;5089684;28;20032;-71
2021/12/31 08:45:08;;;;;;;28.20;14.70;;;21.30;56.70;;;;;;5075675;28;20148;-70
2021/12/31 08:47:34;;;;;;;27.25;15.07;;;21.30;57.10;;;;;;5094262;28;20067;-71
2021/12/31 08:50:00;;;;;;;29.05;14.60;;;21.20;57.60;;;;;;5094964;28;20036;-70
2021/12/31 08:52:26;;;;;;;34.22;14.93;;;21.10;58.20;;;;;;5094733;28;20045;-71
2021/12/31 08:54:52;;;;;;;30.63;15.48;;;21.10;58.10;;;;;;5095245;28;20044;-70
2021/12/31 08:57:18;;;;;;;24.05;13.43;;;20.90;58.70;;;;;;5083718;28;20044;-70
2021/12/31 08:59:44;;;;;;;27.63;14.60;;;21.00;59.10;;;;;;5077860;28;20037;-71
2021/12/31 09:02:11;;;;;;;27.73;14.23;;;20.90;59.50;;;;;;5075699;28;20049;-70
2021/12/31 09:04:38;;;;;;;29.33;14.80;;;20.90;59.50;;;;;;5075345;28;20040;-71
2021/12/31 09:07:04;;;;;;;30.50;14.45;;;21.00;59.60;;;;;;5087388;28;20081;-71
2021/12/31 09:09:30;;;;;;;28.30;15.55;;;21.00;59.40;;;;;;5094948;28;20029;-71
2021/12/31 09:11:56;;;;;;;26.95;14.45;;;21.00;59.40;;;;;;5088253;28;20044;-72
2021/12/31 09:14:23;;;;;;;24.38;12.52;;;21.00;59.30;;;;;;5094220;28;20039;-72
2021/12/31 09:16:51;;;;;;;21.30;10.50;;;21.10;59.80;;;;;;5092666;28;20045;-71
2021/12/31 09:19:17;;;;;;;18.58;10.23;;;21.20;58.90;;;;;;5094562;28;20045;-72
2021/12/31 09:21:43;;;;;;;24.02;11.80;;;21.40;58.20;;;;;;5091966;28;20051;-72
2021/12/31 09:24:10;;;;;;;22.88;10.98;;;21.60;57.00;;;;;;5095152;28;20048;-72
2021/12/31 09:26:36;;;;;;;27.48;12.15;;;21.70;56.20;;;;;;5098486;28;20044;-72
2021/12/31 09:29:03;;;;;;;22.10;11.68;;;21.70;54.50;;;;;;5096853;28;20047;-72
2021/12/31 09:31:29;;;;;;;26.05;12.88;;;21.80;53.20;;;;;;5091223;28;20066;-72
2021/12/31 09:33:55;;;;;;;19.10;11.85;;;21.80;52.40;;;;;;5089916;28;20071;-72
2021/12/31 09:36:21;;;;;;;26.33;12.93;;;21.80;51.80;;;;;;5082876;28;20045;-72
2021/12/31 09:38:47;;;;;;;28.00;13.73;;;22.00;52.00;;;;;;5087028;28;20058;-71
2021/12/31 09:41:13;;;;;;;27.45;14.02;;;22.00;52.20;;;;;;5086413;28;20070;-72
2021/12/31 09:43:44;;;;;;;24.85;13.18;;;22.00;52.00;;;;;;5090598;28;20041;-73
2021/12/31 09:46:11;;;;;;;24.35;13.32;;;22.10;52.40;;;;;;5085671;28;20049;-71
2021/12/31 09:48:38;;;;;;;24.45;12.75;;;22.00;50.60;;;;;;5093252;28;20079;-72
2021/12/31 09:51:06;;;;;;;21.70;11.45;;;22.00;49.90;;;;;;5083301;28;20052;-71
2021/12/31 09:53:33;;;;;;;20.20;12.85;;;21.90;50.00;;;;;;5085489;28;20049;-70
2021/12/31 09:55:59;;;;;;;26.13;13.75;;;22.00;49.60;;;;;;5085419;28;20045;-71
2021/12/31 09:58:26;;;;;;;24.83;12.77;;;22.00;49.00;;;;;;5088882;28;20045;-71
2021/12/31 10:00:57;;;;;;;23.40;13.15;;;22.00;49.10;;;;;;5085426;28;20067;-71
2021/12/31 10:03:26;;;;;;;27.50;13.18;;;22.10;49.60;;;;;;5089278;28;20041;-71
2021/12/31 10:06:09;;;;;;;25.50;14.48;;;22.00;49.30;;;;;;5092275;28;20037;-71
2021/12/31 10:08:44;;;;;;;;;;;22.20;49.50;;;;;;5080836;28;20045;-72
2021/12/31 10:11:20;;;;;;;24.73;13.55;;;22.20;49.00;;;;;;5091606;28;19972;-72
2021/12/31 10:13:59;;;;;;;26.13;16.05;;;22.20;48.20;;;;;;5091529;28;20471;-71
2021/12/31 10:16:31;;;;;;;29.23;16.45;;;22.30;47.30;;;;;;5089964;28;20104;-71
2021/12/31 10:19:08;;;;;;;26.20;15.20;;;22.00;47.80;;;;;;5091649;28;20100;-69
2021/12/31 10:21:57;;;;;;;20.92;11.32;;;21.90;45.80;;;;;;5096981;28;20040;-70
2021/12/31 10:24:26;;;;;;;14.80;8.88;;;21.90;40.40;;;;;;5097191;28;20087;-70
2021/12/31 10:26:54;;;;;;;22.95;12.65;;;22.10;39.80;;;;;;5097551;28;20412;-70
2021/12/31 10:29:21;;;;;;;20.42;13.15;;;22.10;38.20;;;;;;5097041;28;20047;-70
2021/12/31 10:31:52;;;;;;;20.85;12.60;;;22.30;37.60;;;;;;5096978;28;20131;-70
2021/12/31 10:34:31;;;;;;;21.25;12.48;;;22.30;37.70;;;;;;5095313;28;20066;-69
2021/12/31 10:37:22;;;;;;;32.25;15.20;;;22.50;41.30;;;;;;5095511;28;20079;-70
2021/12/31 10:39:59;;;;;;;19.00;11.45;;;22.70;45.30;;;;;;5094832;28;20037;-70
2021/12/31 10:42:32;;;;;;;29.40;14.88;;;23.10;43.60;;;;;;5089428;28;20055;-69
2021/12/31 10:45:03;;;;;;;19.17;11.95;;;23.10;40.00;;;;;;5088946;28;20076;-69
2021/12/31 10:47:47;;;;;;;22.27;12.65;;;23.00;39.30;;;;;;5093324;28;20044;-71
2021/12/31 10:50:16;;;;;;;23.38;14.80;;;23.10;41.30;;;;;;5095953;28;20073;-70
2021/12/31 10:52:57;;;;;;;19.63;11.90;;;23.30;43.20;;;;;;5096633;28;20108;-71
2021/12/31 10:55:29;;;;;;;24.95;15.35;;;23.20;37.00;;;;;;5077417;28;20044;-71
2021/12/31 10:57:58;;;;;;;24.98;14.73;;;23.20;36.30;;;;;;5084475;28;20041;-70
2021/12/31 11:00:32;;;;;;;23.20;15.32;;;23.40;36.80;;;;;;5094519;28;20039;-71
2021/12/31 11:02:58;;;;;;;22.50;13.60;;;23.30;36.50;;;;;;5096090;28;20055;-71
2021/12/31 11:05:26;;;;;;;21.40;13.57;;;23.30;36.90;;;;;;5096642;28;20040;-72
2021/12/31 11:07:54;;;;;;;20.80;11.93;;;23.40;36.60;;;;;;5096388;28;20047;-71
2021/12/31 11:10:37;;;;;;;23.50;14.20;;;23.40;36.80;;;;;;5093789;28;20047;-70
2021/12/31 11:13:14;;;;;;;19.20;11.65;;;23.20;35.20;;;;;;5088668;28;20041;-70
2021/12/31 11:15:43;;;;;;;15.15;10.43;;;23.20;34.60;;;;;;5094112;28;20040;-70
2021/12/31 11:18:09;;;;;;;17.67;10.32;;;23.40;34.80;;;;;;5095356;28;20044;-69
2021/12/31 11:20:35;;;;;;;35.28;19.52;;;23.30;35.70;;;;;;5078274;28;20070;-70
2021/12/31 11:23:01;;;;;;;36.53;20.25;;;23.30;43.40;;;;;;5094661;28;20067;-69
2021/12/31 11:25:28;;;;;;;33.15;18.63;;;23.30;46.90;;;;;;5095984;28;20039;-73
2021/12/31 11:27:56;;;;;;;34.10;18.70;;;23.20;47.90;;;;;;5096133;28;20036;-71
2021/12/31 11:30:40;;;;;;;35.75;19.95;;;23.00;49.00;;;;;;5094341;28;20098;-69
2021/12/31 11:33:18;;;;;;;29.40;17.80;;;22.90;50.10;;;;;;5089943;28;20103;-70
2021/12/31 11:35:58;;;;;;;33.10;19.02;;;22.80;50.70;;;;;;5076038;28;20057;-71
2021/12/31 11:38:24;;;;;;;36.35;17.77;;;22.70;51.40;;;;;;5089202;28;20060;-71
2021/12/31 11:41:05;;;;;;;30.02;19.20;;;22.60;52.20;;;;;;5088787;28;20072;-70
2021/12/31 11:43:38;;;;;;;33.92;18.88;;;22.50;53.20;;;;;;5079911;28;20056;-71
2021/12/31 11:46:19;;;;;;;34.17;18.20;;;22.50;53.90;;;;;;5094795;28;20040;-70
2021/12/31 11:48:48;;;;;;;31.70;17.75;;;22.40;54.50;;;;;;5095551;28;21821;-71
2021/12/31 11:51:19;;;;;;;29.95;18.33;;;22.40;54.80;;;;;;5096015;28;20044;-71
2021/12/31 11:53:58;;;;;;;34.00;20.23;;;22.40;54.80;;;;;;5095962;28;20108;-71
2021/12/31 11:56:36;;;;;;;34.40;18.30;;;22.30;55.00;;;;;;5095915;28;20048;-71
2021/12/31 11:59:09;;;;;;;29.80;18.17;;;22.20;55.40;;;;;;5094454;28;20052;-71
2021/12/31 12:01:38;;;;;;;31.38;18.70;;;22.20;55.90;;;;;;5086525;28;20051;-71
2021/12/31 12:04:22;;;;;;;35.00;20.02;;;22.00;56.40;;;;;;5095234;28;20078;-72
2021/12/31 12:06:54;;;;;;;32.47;18.52;;;22.00;56.60;;;;;;5096070;28;20044;-71
2021/12/31 12:09:43;;;;;;;33.42;19.45;;;22.00;57.30;;;;;;5096038;28;20067;-71
2021/12/31 12:12:28;;;;;;;30.88;18.60;;;21.90;57.40;;;;;;5095816;28;20048;-71
2021/12/31 12:14:57;;;;;;;29.83;18.88;;;22.00;57.80;;;;;;5089121;28;20051;-71
2021/12/31 12:17:29;;;;;;;29.73;19.42;;;22.00;57.70;;;;;;5094476;28;20104;-71
2021/12/31 12:20:01;;;;;;;28.63;18.42;;;22.00;58.50;;;;;;5095844;28;20032;-71
2021/12/31 12:22:37;;;;;;;33.22;19.92;;;21.90;58.80;;;;;;5095239;28;20059;-70
2021/12/31 12:25:09;;;;;;;35.47;18.58;;;21.90;58.50;;;;;;5093798;28;20036;-70
2021/12/31 12:27:39;;;;;;;31.58;18.83;;;21.90;58.20;;;;;;5094257;28;20071;-70
2021/12/31 12:30:11;;;;;;;34.38;19.83;;;21.90;60.80;;;;;;5088585;28;20049;-72
2021/12/31 12:32:51;;;;;;;27.27;19.10;;;21.90;61.90;;;;;;5090455;28;20044;-71
2021/12/31 12:35:23;;;;;;;33.97;20.63;;;21.90;61.70;;;;;;5094316;28;20048;-70
2021/12/31 12:38:19;;;;;;;38.55;22.23;;;21.80;62.80;;;;;;5094458;28;20040;-76
2021/12/31 12:40:50;;;;;;;33.80;20.60;;;21.80;61.50;;;;;;5088369;28;20041;-71